Time,TemperatureF,DewpointF,PressureIn,WindDirection,WindDirectionDegrees,WindSpeedMPH,WindSpeedGustMPH,Humidity,HourlyPrecipIn,Conditions,Clouds,dailyrainin,SoftwareType,DateUTC
2013-10-30 00:02:00,54.1,52.7,29.88,South,180,0.0,0.0,95,0.00,,,0.00,pywws,2013-10-30 04:02:00,
2013-10-30 00:07:00,54.1,52.7,29.88,South,180,0.0,0.0,95,0.00,,,0.00,pywws,2013-10-30 04:07:00,
2013-10-30 00:12:00,54.0,52.6,29.88,South,180,0.0,0.0,95,0.00,,,0.00,pywws,2013-10-30 04:12:00,
2013-10-30 00:17:00,54.0,52.8,29.88,South,180,0.0,0.0,96,0.00,,,0.00,pywws,2013-10-30 04:17:00,
2013-10-30 00:22:00,54.0,52.8,29.88,South,180,0.0,0.0,96,0.00,,,0.00,pywws,2013-10-30 04:22:00,
2013-10-30 00:32:00,54.0,52.8,29.88,South,180,0.0,0.0,96,0.00,,,0.00,pywws,2013-10-30 04:32:00,
2013-10-30 00:37:00,54.0,52.8,29.89,South,180,0.0,0.0,96,0.00,,,0.00,pywws,2013-10-30 04:37:00,
2013-10-30 00:42:00,53.8,52.7,29.89,South,180,0.0,0.0,96,0.00,,,0.00,pywws,2013-10-30 04:42:00,
2013-10-30 00:47:00,53.8,52.7,29.89,South,180,0.0,0.0,96,0.00,,,0.00,pywws,2013-10-30 04:47:00,
2013-10-30 00:52:00,53.8,52.7,29.90,South,180,0.0,0.0,96,0.00,,,0.00,pywws,2013-10-30 04:52:00,
2013-10-30 01:02:00,53.6,52.5,29.90,South,180,0.0,0.0,96,0.00,,,0.00,pywws,2013-10-30 05:02:00,
2013-10-30 01:07:00,53.8,52.9,29.90,South,180,0.0,0.0,97,0.00,,,0.00,pywws,2013-10-30 05:07:00,
2013-10-30 01:12:00,53.8,52.9,29.90,South,180,0.0,0.0,97,0.00,,,0.00,pywws,2013-10-30 05:12:00,
2013-10-30 01:17:00,53.6,52.8,29.90,South,180,0.0,0.0,97,0.00,,,0.00,pywws,2013-10-30 05:17:00,
2013-10-30 01:22:00,53.6,52.8,29.90,South,180,0.0,0.0,97,0.00,,,0.00,pywws,2013-10-30 05:22:00,
2013-10-30 01:32:00,53.4,52.6,29.90,South,180,0.0,0.0,97,0.00,,,0.00,pywws,2013-10-30 05:32:00,
2013-10-30 01:36:00,53.4,52.6,29.91,South,180,0.0,0.0,97,0.00,,,0.00,pywws,2013-10-30 05:36:00,
2013-10-30 01:41:00,53.4,52.6,29.91,South,180,0.0,0.0,97,0.00,,,0.00,pywws,2013-10-30 05:41:00,
2013-10-30 01:46:00,53.2,52.4,29.91,South,180,0.0,0.0,97,0.00,,,0.00,pywws,2013-10-30 05:46:00,
2013-10-30 01:51:00,53.2,52.4,29.91,South,180,0.0,0.0,97,0.00,,,0.00,pywws,2013-10-30 05:51:00,
2013-10-30 02:02:00,53.2,52.7,29.91,South,180,0.0,0.0,98,0.00,,,0.00,pywws,2013-10-30 06:02:00,
2013-10-30 02:07:00,53.2,52.7,29.91,South,180,0.0,0.0,98,0.00,,,0.00,pywws,2013-10-30 06:07:00,
2013-10-30 02:12:00,53.2,52.7,29.92,South,180,0.0,0.0,98,0.00,,,0.00,pywws,2013-10-30 06:12:00,
2013-10-30 02:17:00,53.2,52.7,29.92,South,180,0.0,0.0,98,0.00,,,0.00,pywws,2013-10-30 06:17:00,
2013-10-30 02:22:00,53.2,52.7,29.92,South,180,0.0,0.0,98,0.00,,,0.00,pywws,2013-10-30 06:22:00,
2013-10-30 02:32:00,53.2,52.7,29.92,South,180,0.0,0.0,98,0.00,,,0.00,pywws,2013-10-30 06:32:00,
2013-10-30 02:36:00,53.4,52.9,29.92,South,180,0.0,0.0,98,0.00,,,0.00,pywws,2013-10-30 06:36:00,
2013-10-30 02:41:00,53.4,52.9,29.92,South,180,0.0,0.0,98,0.00,,,0.00,pywws,2013-10-30 06:41:00,
2013-10-30 02:46:00,53.4,52.9,29.92,South,180,0.0,0.0,98,0.00,,,0.00,pywws,2013-10-30 06:46:00,
2013-10-30 02:51:00,53.4,52.9,29.92,South,180,0.0,0.0,98,0.00,,,0.00,pywws,2013-10-30 06:51:00,
2013-10-30 03:02:00,53.2,52.7,29.92,South,180,0.0,0.0,98,0.00,,,0.00,pywws,2013-10-30 07:02:00,
2013-10-30 03:07:00,53.2,52.7,29.93,South,180,0.0,0.0,98,0.00,,,0.00,pywws,2013-10-30 07:07:00,
2013-10-30 03:12:00,53.2,52.7,29.93,South,180,0.0,0.0,98,0.00,,,0.00,pywws,2013-10-30 07:12:00,
2013-10-30 03:17:00,53.1,52.5,29.93,South,180,0.0,0.0,98,0.00,,,0.00,pywws,2013-10-30 07:17:00,
2013-10-30 03:22:00,53.1,52.5,29.93,South,180,0.0,0.0,98,0.00,,,0.00,pywws,2013-10-30 07:22:00,
2013-10-30 03:32:00,52.9,52.3,29.93,South,180,0.0,0.0,98,0.00,,,0.00,pywws,2013-10-30 07:32:00,
2013-10-30 03:37:00,52.9,52.6,29.93,South,180,0.0,0.0,99,0.00,,,0.00,pywws,2013-10-30 07:37:00,
2013-10-30 03:42:00,53.1,52.5,29.93,South,180,0.0,0.0,98,0.00,,,0.00,pywws,2013-10-30 07:42:00,
2013-10-30 03:47:00,53.1,52.8,29.93,South,180,0.0,0.0,99,0.00,,,0.00,pywws,2013-10-30 07:47:00,
2013-10-30 03:52:00,53.1,52.8,29.93,South,180,0.0,0.0,99,0.00,,,0.00,pywws,2013-10-30 07:52:00,
2013-10-30 04:02:00,53.1,52.8,29.93,South,180,0.0,0.0,99,0.00,,,0.00,pywws,2013-10-30 08:02:00,
2013-10-30 04:07:00,53.2,53.0,29.93,South,180,0.0,0.0,99,0.00,,,0.00,pywws,2013-10-30 08:07:00,
2013-10-30 04:12:00,53.1,52.8,29.94,South,180,0.0,0.0,99,0.00,,,0.00,pywws,2013-10-30 08:12:00,
2013-10-30 04:17:00,53.2,53.0,29.94,West,270,0.0,0.0,99,0.00,,,0.00,pywws,2013-10-30 08:17:00,
2013-10-30 04:22:00,52.9,52.6,29.94,West,270,0.0,0.0,99,0.00,,,0.00,pywws,2013-10-30 08:22:00,
2013-10-30 04:32:00,52.9,52.6,29.94,West,270,0.0,0.0,99,0.00,,,0.00,pywws,2013-10-30 08:32:00,
2013-10-30 04:37:00,52.7,52.4,29.94,West,270,0.0,0.0,99,0.00,,,0.00,pywws,2013-10-30 08:37:00,
2013-10-30 04:42:00,52.5,52.2,29.94,West,270,0.0,0.0,99,0.00,,,0.00,pywws,2013-10-30 08:42:00,
2013-10-30 04:47:00,52.5,52.2,29.94,West,270,0.0,0.0,99,0.00,,,0.00,pywws,2013-10-30 08:47:00,
2013-10-30 04:52:00,52.5,52.2,29.95,West,270,0.0,0.0,99,0.00,,,0.00,pywws,2013-10-30 08:52:00,
2013-10-30 05:02:00,52.5,52.2,29.95,South,180,0.0,0.0,99,0.00,,,0.00,pywws,2013-10-30 09:02:00,
2013-10-30 05:07:00,52.5,52.2,29.95,South,180,0.0,0.0,99,0.00,,,0.00,pywws,2013-10-30 09:07:00,
2013-10-30 05:12:00,52.5,52.2,29.95,South,180,0.0,0.0,99,0.00,,,0.00,pywws,2013-10-30 09:12:00,
2013-10-30 05:17:00,52.5,52.2,29.95,South,180,0.0,0.0,99,0.00,,,0.00,pywws,2013-10-30 09:17:00,
2013-10-30 05:22:00,52.5,52.2,29.95,South,180,0.0,0.0,99,0.00,,,0.00,pywws,2013-10-30 09:22:00,
2013-10-30 05:32:00,52.5,52.2,29.95,South,180,0.0,0.0,99,0.00,,,0.00,pywws,2013-10-30 09:32:00,
2013-10-30 05:37:00,52.5,52.2,29.95,South,180,0.0,0.0,99,0.00,,,0.00,pywws,2013-10-30 09:37:00,
2013-10-30 05:42:00,53.1,52.8,29.95,South,180,0.0,0.0,99,0.00,,,0.00,pywws,2013-10-30 09:42:00,
2013-10-30 05:47:00,53.2,53.0,29.96,South,180,0.0,0.0,99,0.00,,,0.00,pywws,2013-10-30 09:47:00,
2013-10-30 05:52:00,53.2,53.0,29.96,South,180,0.0,0.0,99,0.00,,,0.00,pywws,2013-10-30 09:52:00,
2013-10-30 06:02:00,53.2,53.0,29.96,South,180,0.0,0.0,99,0.00,,,0.00,pywws,2013-10-30 10:02:00,
2013-10-30 06:07:00,53.2,53.0,29.96,South,180,0.0,0.0,99,0.00,,,0.00,pywws,2013-10-30 10:07:00,
2013-10-30 06:12:00,53.2,53.0,29.96,South,180,0.0,0.0,99,0.00,,,0.00,pywws,2013-10-30 10:12:00,
2013-10-30 06:17:00,53.2,53.0,29.96,South,180,0.0,0.0,99,0.00,,,0.00,pywws,2013-10-30 10:17:00,
2013-10-30 06:22:00,53.2,53.0,29.96,South,180,0.0,0.0,99,0.00,,,0.00,pywws,2013-10-30 10:22:00,
2013-10-30 06:32:00,53.2,53.0,29.96,South,180,0.0,0.0,99,0.00,,,0.00,pywws,2013-10-30 10:32:00,
2013-10-30 06:37:00,53.4,53.1,29.96,South,180,0.0,0.0,99,0.00,,,0.00,pywws,2013-10-30 10:37:00,
2013-10-30 06:42:00,53.4,53.1,29.96,South,180,0.0,0.0,99,0.00,,,0.00,pywws,2013-10-30 10:42:00,
2013-10-30 06:47:00,53.4,53.1,29.96,NW,315,0.0,0.0,99,0.00,,,0.00,pywws,2013-10-30 10:47:00,
2013-10-30 06:52:00,53.2,53.0,29.96,NW,315,0.0,0.0,99,0.00,,,0.00,pywws,2013-10-30 10:52:00,
2013-10-30 07:02:00,53.2,53.0,29.96,NW,315,0.0,0.0,99,0.00,,,0.00,pywws,2013-10-30 11:02:00,
2013-10-30 07:07:00,53.2,53.0,29.96,NW,315,0.0,0.0,99,0.00,,,0.00,pywws,2013-10-30 11:07:00,
2013-10-30 07:12:00,53.2,53.0,29.96,NW,315,0.0,0.0,99,0.00,,,0.00,pywws,2013-10-30 11:12:00,
2013-10-30 07:17:00,53.2,53.0,29.97,South,180,0.0,0.0,99,0.00,,,0.00,pywws,2013-10-30 11:17:00,
2013-10-30 07:22:00,53.4,53.1,29.97,South,180,0.0,0.0,99,0.00,,,0.00,pywws,2013-10-30 11:22:00,
2013-10-30 07:32:00,53.4,53.1,29.96,West,270,0.0,0.0,99,0.00,,,0.00,pywws,2013-10-30 11:32:00,
2013-10-30 07:37:00,53.4,53.1,29.96,West,270,0.0,0.0,99,0.00,,,0.00,pywws,2013-10-30 11:37:00,
2013-10-30 07:42:00,53.6,53.3,29.96,West,270,0.0,0.0,99,0.00,,,0.00,pywws,2013-10-30 11:42:00,
2013-10-30 07:47:00,53.6,53.3,29.96,West,270,0.0,0.0,99,0.00,,,0.00,pywws,2013-10-30 11:47:00,
2013-10-30 07:52:00,53.6,53.3,29.96,West,270,0.0,0.0,99,0.00,,,0.00,pywws,2013-10-30 11:52:00,
2013-10-30 08:02:00,53.6,53.3,29.96,West,270,0.0,0.0,99,0.00,,,0.00,pywws,2013-10-30 12:02:00,
2013-10-30 08:07:00,53.6,53.3,29.95,West,270,0.0,0.0,99,0.00,,,0.00,pywws,2013-10-30 12:07:00,
2013-10-30 08:12:00,54.0,53.7,29.95,SE,135,0.0,0.0,99,0.00,,,0.00,pywws,2013-10-30 12:12:00,
2013-10-30 08:17:00,54.1,53.9,29.95,SE,135,0.0,0.0,99,0.00,,,0.00,pywws,2013-10-30 12:17:00,
2013-10-30 08:22:00,54.3,54.0,29.95,SE,135,0.0,0.0,99,0.00,,,0.00,pywws,2013-10-30 12:22:00,
2013-10-30 08:32:00,54.5,54.2,29.95,SE,135,0.0,0.0,99,0.00,,,0.00,pywws,2013-10-30 12:32:00,
2013-10-30 08:37:00,54.9,54.6,29.94,SW,225,0.0,0.0,99,0.00,,,0.00,pywws,2013-10-30 12:37:00,
2013-10-30 08:42:00,55.0,54.8,29.94,SW,225,0.0,0.0,99,0.00,,,0.00,pywws,2013-10-30 12:42:00,
2013-10-30 08:47:00,55.2,54.9,29.94,SW,225,0.0,0.0,99,0.00,,,0.00,pywws,2013-10-30 12:47:00,
2013-10-30 08:52:00,55.6,55.3,29.94,SW,225,0.0,0.0,99,0.00,,,0.00,pywws,2013-10-30 12:52:00,
2013-10-30 09:02:00,55.9,55.7,29.94,SW,225,0.0,0.0,99,0.00,,,0.00,pywws,2013-10-30 13:02:00,
2013-10-30 09:07:00,56.7,56.4,29.94,SW,225,0.0,0.0,99,0.00,,,0.00,pywws,2013-10-30 13:07:00,
2013-10-30 09:12:00,57.0,56.7,29.93,SW,225,0.0,0.0,99,0.00,,,0.00,pywws,2013-10-30 13:12:00,
2013-10-30 09:17:00,57.4,57.1,29.93,SW,225,0.0,0.0,99,0.00,,,0.00,pywws,2013-10-30 13:17:00,
2013-10-30 09:22:00,57.9,57.6,29.93,SW,225,0.0,0.0,99,0.00,,,0.00,pywws,2013-10-30 13:22:00,
2013-10-30 09:32:00,58.6,58.4,29.93,SW,225,0.0,0.0,99,0.00,,,0.00,pywws,2013-10-30 13:32:00,
2013-10-30 09:37:00,60.1,59.8,29.93,SW,225,0.0,0.0,99,0.00,,,0.00,pywws,2013-10-30 13:37:00,
2013-10-30 09:42:00,61.0,60.7,29.93,SW,225,0.0,0.0,99,0.00,,,0.00,pywws,2013-10-30 13:42:00,
2013-10-30 09:47:00,62.8,61.6,29.93,North,0,0.0,0.0,96,0.00,,,0.00,pywws,2013-10-30 13:47:00,
2013-10-30 09:52:00,65.3,62.6,29.93,North,0,0.0,0.0,91,0.00,,,0.00,pywws,2013-10-30 13:52:00,
2013-10-30 10:02:00,66.6,62.6,29.93,North,0,0.0,0.0,87,0.00,,,0.00,pywws,2013-10-30 14:02:00,
2013-10-30 10:07:00,67.6,61.9,29.93,North,0,0.0,0.0,82,0.00,,,0.00,pywws,2013-10-30 14:07:00,
2013-10-30 10:12:00,67.8,61.4,29.93,North,0,0.0,0.0,80,0.00,,,0.00,pywws,2013-10-30 14:12:00,
2013-10-30 10:17:00,68.0,61.2,29.93,West,270,0.0,0.0,79,0.00,,,0.00,pywws,2013-10-30 14:17:00,
2013-10-30 10:22:00,68.2,61.4,29.93,West,270,0.0,0.0,79,0.00,,,0.00,pywws,2013-10-30 14:22:00,
2013-10-30 10:32:00,68.4,60.1,29.93,SW,225,0.0,0.0,75,0.00,,,0.00,pywws,2013-10-30 14:32:00,
2013-10-30 10:37:00,68.7,59.3,29.92,West,270,0.7,1.6,72,0.00,,,0.00,pywws,2013-10-30 14:37:00,
2013-10-30 10:42:00,68.9,58.7,29.92,NE,45,0.0,0.7,70,0.00,,,0.00,pywws,2013-10-30 14:42:00,
2013-10-30 10:47:00,69.1,58.5,29.92,West,270,0.7,2.2,69,0.00,,,0.00,pywws,2013-10-30 14:47:00,
2013-10-30 10:52:00,69.8,58.8,29.92,NW,315,1.6,3.1,68,0.00,,,0.00,pywws,2013-10-30 14:52:00,
2013-10-30 11:02:00,69.8,56.2,29.92,SSW,202,1.6,2.2,62,0.00,,,0.00,pywws,2013-10-30 15:02:00,
2013-10-30 11:07:00,70.9,56.3,29.92,North,0,0.0,1.6,60,0.00,,,0.00,pywws,2013-10-30 15:07:00,
2013-10-30 11:12:00,72.5,57.8,29.92,NW,315,1.6,2.2,60,0.00,,,0.00,pywws,2013-10-30 15:12:00,
2013-10-30 11:17:00,72.9,57.2,29.92,North,0,0.7,1.6,58,0.00,,,0.00,pywws,2013-10-30 15:17:00,
2013-10-30 11:22:00,72.1,56.1,29.92,SW,225,1.6,2.2,57,0.00,,,0.00,pywws,2013-10-30 15:22:00,
2013-10-30 11:32:00,73.2,56.6,29.92,NW,315,1.6,3.8,56,0.00,,,0.00,pywws,2013-10-30 15:32:00,
2013-10-30 11:37:00,75.2,57.4,29.91,West,270,0.7,3.1,54,0.00,,,0.00,pywws,2013-10-30 15:37:00,
2013-10-30 11:42:00,75.4,56.5,29.91,West,270,1.6,3.1,52,0.00,,,0.00,pywws,2013-10-30 15:42:00,
2013-10-30 11:47:00,76.1,57.2,29.91,West,270,0.7,3.8,52,0.00,,,0.00,pywws,2013-10-30 15:47:00,
2013-10-30 11:52:00,75.9,56.5,29.91,South,180,0.7,2.2,51,0.00,,,0.00,pywws,2013-10-30 15:52:00,
2013-10-30 12:02:00,75.9,55.4,29.91,WNW,292,2.2,4.5,49,0.00,,,0.00,pywws,2013-10-30 16:02:00,
2013-10-30 12:07:00,76.3,56.3,29.90,West,270,0.7,3.1,50,0.00,,,0.00,pywws,2013-10-30 16:07:00,
2013-10-30 12:12:00,76.5,55.9,29.90,SW,225,0.7,2.2,49,0.00,,,0.00,pywws,2013-10-30 16:12:00,
2013-10-30 12:17:00,77.7,57.0,29.90,SW,225,1.6,3.1,49,0.00,,,0.00,pywws,2013-10-30 16:17:00,
2013-10-30 12:22:00,76.6,56.0,29.90,West,270,0.0,1.6,49,0.00,,,0.00,pywws,2013-10-30 16:22:00,
2013-10-30 12:32:00,76.1,56.1,29.90,NW,315,2.2,3.8,50,0.00,,,0.00,pywws,2013-10-30 16:32:00,
2013-10-30 12:37:00,76.1,57.2,29.90,West,270,2.2,6.0,52,0.00,,,0.00,pywws,2013-10-30 16:37:00,
2013-10-30 12:42:00,75.7,56.3,29.89,West,270,2.2,3.8,51,0.00,,,0.00,pywws,2013-10-30 16:42:00,
2013-10-30 12:47:00,75.4,56.5,29.89,West,270,2.2,3.8,52,0.00,,,0.00,pywws,2013-10-30 16:47:00,
2013-10-30 12:52:00,75.4,56.5,29.89,NW,315,1.6,2.2,52,0.00,,,0.00,pywws,2013-10-30 16:52:00,
2013-10-30 13:02:00,75.4,56.0,29.89,West,270,2.2,4.5,51,0.00,,,0.00,pywws,2013-10-30 17:02:00,
2013-10-30 13:07:00,75.7,56.8,29.89,SW,225,2.2,3.1,52,0.00,,,0.00,pywws,2013-10-30 17:07:00,
2013-10-30 13:12:00,75.6,56.7,29.88,West,270,2.2,3.8,52,0.00,,,0.00,pywws,2013-10-30 17:12:00,
2013-10-30 13:17:00,75.7,56.8,29.88,North,0,3.1,5.4,52,0.00,,,0.00,pywws,2013-10-30 17:17:00,
2013-10-30 13:22:00,75.6,56.7,29.88,East,90,1.6,4.5,52,0.00,,,0.00,pywws,2013-10-30 17:22:00,
2013-10-30 13:32:00,75.9,56.5,29.88,NW,315,1.6,3.8,51,0.00,,,0.00,pywws,2013-10-30 17:32:00,
2013-10-30 13:37:00,76.3,56.8,29.88,SE,135,1.6,3.1,51,0.00,,,0.00,pywws,2013-10-30 17:37:00,
2013-10-30 13:42:00,76.3,56.3,29.87,South,180,1.6,3.1,50,0.00,,,0.00,pywws,2013-10-30 17:42:00,
2013-10-30 13:47:00,76.5,56.4,29.87,South,180,3.1,5.4,50,0.00,,,0.00,pywws,2013-10-30 17:47:00,
2013-10-30 13:52:00,76.5,56.4,29.87,South,180,1.6,2.2,50,0.00,,,0.00,pywws,2013-10-30 17:52:00,
2013-10-30 14:02:00,76.6,57.1,29.87,South,180,0.7,3.1,51,0.00,,,0.00,pywws,2013-10-30 18:02:00,
2013-10-30 14:07:00,77.0,58.0,29.87,SE,135,0.0,2.2,52,0.00,,,0.00,pywws,2013-10-30 18:07:00,
2013-10-30 14:12:00,77.2,57.1,29.87,South,180,1.6,3.1,50,0.00,,,0.00,pywws,2013-10-30 18:12:00,
2013-10-30 14:17:00,77.0,56.9,29.86,SE,135,0.7,3.1,50,0.00,,,0.00,pywws,2013-10-30 18:17:00,
2013-10-30 14:22:00,77.0,57.5,29.86,ESE,112,0.7,1.6,51,0.00,,,0.00,pywws,2013-10-30 18:22:00,
2013-10-30 14:32:00,77.4,57.2,29.86,West,270,1.6,2.2,50,0.00,,,0.00,pywws,2013-10-30 18:32:00,
2013-10-30 14:36:00,77.9,57.7,29.86,West,270,0.0,0.0,50,0.00,,,0.00,pywws,2013-10-30 18:36:00,
2013-10-30 14:41:00,77.9,57.2,29.85,NE,45,0.0,0.7,49,0.00,,,0.00,pywws,2013-10-30 18:41:00,
2013-10-30 14:46:00,77.9,57.2,29.85,NW,315,1.6,3.1,49,0.00,,,0.00,pywws,2013-10-30 18:46:00,
2013-10-30 14:51:00,77.7,56.4,29.85,West,270,2.2,3.8,48,0.00,,,0.00,pywws,2013-10-30 18:51:00,
2013-10-30 15:02:00,77.7,57.0,29.85,West,270,0.7,2.2,49,0.00,,,0.00,pywws,2013-10-30 19:02:00,
2013-10-30 15:06:00,78.1,57.9,29.85,South,180,0.0,0.7,50,0.00,,,0.00,pywws,2013-10-30 19:06:00,
2013-10-30 15:11:00,78.1,56.8,29.85,SW,225,1.6,3.8,48,0.00,,,0.00,pywws,2013-10-30 19:11:00,
2013-10-30 15:16:00,78.3,57.5,29.85,NW,315,0.0,1.6,49,0.00,,,0.00,pywws,2013-10-30 19:16:00,
2013-10-30 15:21:00,78.1,56.8,29.84,SE,135,0.7,3.1,48,0.00,,,0.00,pywws,2013-10-30 19:21:00,
2013-10-30 15:32:00,78.3,56.4,29.84,SE,135,0.7,2.2,47,0.00,,,0.00,pywws,2013-10-30 19:32:00,
2013-10-30 15:37:00,78.6,57.3,29.84,North,0,0.0,0.7,48,0.00,,,0.00,pywws,2013-10-30 19:37:00,
2013-10-30 15:42:00,78.8,56.8,29.83,SE,135,2.2,3.8,47,0.00,,,0.00,pywws,2013-10-30 19:42:00,
2013-10-30 15:47:00,78.8,56.8,29.83,NW,315,1.6,3.1,47,0.00,,,0.00,pywws,2013-10-30 19:47:00,
2013-10-30 15:52:00,79.0,57.0,29.83,NW,315,0.7,2.2,47,0.00,,,0.00,pywws,2013-10-30 19:52:00,
2013-10-30 16:02:00,78.8,56.2,29.83,SE,135,1.6,3.1,46,0.00,,,0.00,pywws,2013-10-30 20:02:00,
2013-10-30 16:06:00,79.2,57.2,29.83,NE,45,0.7,2.2,47,0.00,,,0.00,pywws,2013-10-30 20:06:00,
2013-10-30 16:11:00,79.9,58.4,29.83,SSE,158,0.0,0.7,48,0.00,,,0.00,pywws,2013-10-30 20:11:00,
2013-10-30 16:16:00,79.7,57.1,29.83,West,270,0.0,1.6,46,0.00,,,0.00,pywws,2013-10-30 20:16:00,
2013-10-30 16:21:00,79.2,57.2,29.83,SE,135,0.0,0.0,47,0.00,,,0.00,pywws,2013-10-30 20:21:00,
2013-10-30 16:32:00,78.6,56.7,29.83,South,180,1.6,3.1,47,0.00,,,0.00,pywws,2013-10-30 20:32:00,
2013-10-30 16:36:00,78.3,55.8,29.82,SE,135,1.6,3.1,46,0.00,,,0.00,pywws,2013-10-30 20:36:00,
2013-10-30 16:41:00,78.3,56.4,29.82,South,180,0.0,2.2,47,0.00,,,0.00,pywws,2013-10-30 20:41:00,
2013-10-30 16:46:00,78.4,57.1,29.82,SE,135,0.0,1.6,48,0.00,,,0.00,pywws,2013-10-30 20:46:00,
2013-10-30 16:51:00,78.4,56.5,29.82,SSE,158,1.6,3.1,47,0.00,,,0.00,pywws,2013-10-30 20:51:00,
2013-10-30 17:02:00,78.3,56.9,29.81,South,180,0.7,2.2,48,0.00,,,0.00,pywws,2013-10-30 21:02:00,
2013-10-30 17:07:00,78.8,56.8,29.81,West,270,0.7,2.2,47,0.00,,,0.00,pywws,2013-10-30 21:07:00,
2013-10-30 17:12:00,78.6,57.8,29.81,SE,135,0.0,0.0,49,0.00,,,0.00,pywws,2013-10-30 21:12:00,
2013-10-30 17:17:00,79.0,58.2,29.81,South,180,0.7,1.6,49,0.00,,,0.00,pywws,2013-10-30 21:17:00,
2013-10-30 17:22:00,78.4,57.7,29.80,East,90,0.7,2.2,49,0.00,,,0.00,pywws,2013-10-30 21:22:00,
2013-10-30 17:32:00,77.7,57.6,29.80,SW,225,0.7,1.6,50,0.00,,,0.00,pywws,2013-10-30 21:32:00,
2013-10-30 17:37:00,77.2,58.2,29.80,South,180,0.0,0.7,52,0.00,,,0.00,pywws,2013-10-30 21:37:00,
2013-10-30 17:42:00,76.6,57.7,29.80,SE,135,0.0,0.0,52,0.00,,,0.00,pywws,2013-10-30 21:42:00,
2013-10-30 17:47:00,75.9,58.1,29.80,NE,45,0.0,0.0,54,0.00,,,0.00,pywws,2013-10-30 21:47:00,
2013-10-30 17:52:00,75.4,58.1,29.80,NE,45,0.0,0.0,55,0.00,,,0.00,pywws,2013-10-30 21:52:00,
2013-10-30 18:02:00,74.5,57.7,29.80,NE,45,0.0,0.0,56,0.00,,,0.00,pywws,2013-10-30 22:02:00,
2013-10-30 18:06:00,73.2,58.0,29.79,NE,45,0.0,0.0,59,0.00,,,0.00,pywws,2013-10-30 22:06:00,
2013-10-30 18:11:00,72.5,58.3,29.79,NE,45,0.0,0.0,61,0.00,,,0.00,pywws,2013-10-30 22:11:00,
2013-10-30 18:16:00,72.0,58.2,29.79,NE,45,0.0,0.0,62,0.00,,,0.00,pywws,2013-10-30 22:16:00,
2013-10-30 18:21:00,71.2,58.0,29.79,NE,45,0.0,0.0,63,0.00,,,0.00,pywws,2013-10-30 22:21:00,
2013-10-30 18:32:00,70.5,58.6,29.78,SE,135,0.0,0.0,66,0.00,,,0.00,pywws,2013-10-30 22:32:00,
2013-10-30 18:37:00,69.6,58.2,29.78,SE,135,0.0,0.0,67,0.00,,,0.00,pywws,2013-10-30 22:37:00,
2013-10-30 18:42:00,69.1,58.5,29.78,SE,135,0.0,0.0,69,0.00,,,0.00,pywws,2013-10-30 22:42:00,
2013-10-30 18:47:00,68.5,58.4,29.78,SE,135,0.0,0.0,70,0.00,,,0.00,pywws,2013-10-30 22:47:00,
2013-10-30 18:52:00,68.2,58.0,29.78,SE,135,0.0,0.0,70,0.00,,,0.00,pywws,2013-10-30 22:52:00,
2013-10-30 19:02:00,67.8,58.1,29.78,SE,135,0.0,0.0,71,0.00,,,0.00,pywws,2013-10-30 23:02:00,
2013-10-30 19:06:00,66.9,58.4,29.78,SE,135,0.0,0.0,74,0.00,,,0.00,pywws,2013-10-30 23:06:00,
2013-10-30 19:11:00,66.6,58.0,29.78,SE,135,0.0,0.0,74,0.00,,,0.00,pywws,2013-10-30 23:11:00,
2013-10-30 19:16:00,66.4,57.8,29.78,SE,135,0.0,0.0,74,0.00,,,0.00,pywws,2013-10-30 23:16:00,
2013-10-30 19:21:00,66.2,58.0,29.78,SE,135,0.0,0.0,75,0.00,,,0.00,pywws,2013-10-30 23:21:00,
2013-10-30 19:32:00,65.8,58.1,29.78,SE,135,0.0,0.0,76,0.00,,,0.00,pywws,2013-10-30 23:32:00,
2013-10-30 19:37:00,65.7,58.2,29.78,SE,135,0.0,0.0,77,0.00,,,0.00,pywws,2013-10-30 23:37:00,
2013-10-30 19:42:00,65.5,58.1,29.78,SE,135,0.0,0.0,77,0.00,,,0.00,pywws,2013-10-30 23:42:00,
2013-10-30 19:47:00,65.3,57.9,29.78,SE,135,0.0,0.0,77,0.00,,,0.00,pywws,2013-10-30 23:47:00,
2013-10-30 19:52:00,65.1,58.1,29.78,SE,135,0.0,0.0,78,0.00,,,0.00,pywws,2013-10-30 23:52:00,
2013-10-30 20:02:00,65.1,58.1,29.78,SE,135,0.0,0.0,78,0.00,,,0.00,pywws,2013-10-31 00:02:00,
2013-10-30 20:06:00,65.1,58.1,29.78,SE,135,0.0,0.0,78,0.00,,,0.00,pywws,2013-10-31 00:06:00,
2013-10-30 20:11:00,65.1,58.1,29.78,SE,135,0.0,0.0,78,0.00,,,0.00,pywws,2013-10-31 00:11:00,
2013-10-30 20:16:00,64.9,57.9,29.78,SE,135,0.0,0.0,78,0.00,,,0.00,pywws,2013-10-31 00:16:00,
2013-10-30 20:21:00,64.9,57.9,29.78,SE,135,0.0,0.0,78,0.00,,,0.00,pywws,2013-10-31 00:21:00,
2013-10-30 20:32:00,64.8,57.7,29.78,SE,135,0.0,0.0,78,0.00,,,0.00,pywws,2013-10-31 00:32:00,
2013-10-30 20:36:00,64.8,58.1,29.78,SE,135,0.0,0.0,79,0.00,,,0.00,pywws,2013-10-31 00:36:00,
2013-10-30 20:41:00,64.8,58.1,29.78,SE,135,0.0,0.0,79,0.00,,,0.00,pywws,2013-10-31 00:41:00,
2013-10-30 20:46:00,64.6,58.3,29.78,SE,135,0.0,0.0,80,0.00,,,0.00,pywws,2013-10-31 00:46:00,
2013-10-30 20:51:00,64.4,58.1,29.78,SE,135,0.0,0.0,80,0.00,,,0.00,pywws,2013-10-31 00:51:00,
2013-10-30 21:02:00,64.2,57.9,29.78,SE,135,0.0,0.0,80,0.00,,,0.00,pywws,2013-10-31 01:02:00,
2013-10-30 21:07:00,64.0,57.7,29.77,SE,135,0.0,0.0,80,0.00,,,0.00,pywws,2013-10-31 01:07:00,
2013-10-30 21:12:00,63.9,57.9,29.77,SE,135,0.0,0.0,81,0.00,,,0.00,pywws,2013-10-31 01:12:00,
2013-10-30 21:17:00,63.9,57.9,29.77,SE,135,0.0,0.0,81,0.00,,,0.00,pywws,2013-10-31 01:17:00,
2013-10-30 21:22:00,63.9,57.9,29.77,SE,135,0.0,0.0,81,0.00,,,0.00,pywws,2013-10-31 01:22:00,
2013-10-30 21:32:00,63.9,57.9,29.77,SE,135,0.0,0.0,81,0.00,,,0.00,pywws,2013-10-31 01:32:00,
2013-10-30 21:37:00,63.9,58.3,29.77,SE,135,0.0,0.0,82,0.00,,,0.00,pywws,2013-10-31 01:37:00,
2013-10-30 21:42:00,63.9,58.3,29.78,SE,135,0.0,0.0,82,0.00,,,0.00,pywws,2013-10-31 01:42:00,
2013-10-30 21:47:00,63.9,57.9,29.78,SE,135,0.0,0.0,81,0.00,,,0.00,pywws,2013-10-31 01:47:00,
2013-10-30 21:52:00,63.9,57.9,29.78,SE,135,0.0,0.0,81,0.00,,,0.00,pywws,2013-10-31 01:52:00,
2013-10-30 22:02:00,63.9,58.3,29.78,SE,135,0.0,0.0,82,0.00,,,0.00,pywws,2013-10-31 02:02:00,
2013-10-30 22:07:00,64.0,58.4,29.78,SE,135,0.0,0.0,82,0.00,,,0.00,pywws,2013-10-31 02:07:00,
2013-10-30 22:12:00,63.7,58.1,29.78,SE,135,0.0,0.0,82,0.00,,,0.00,pywws,2013-10-31 02:12:00,
2013-10-30 22:17:00,63.5,57.9,29.78,SE,135,0.0,0.0,82,0.00,,,0.00,pywws,2013-10-31 02:17:00,
2013-10-30 22:22:00,63.5,57.9,29.78,SE,135,0.0,0.0,82,0.00,,,0.00,pywws,2013-10-31 02:22:00,
2013-10-30 22:32:00,63.3,58.1,29.78,SE,135,0.0,0.0,83,0.00,,,0.00,pywws,2013-10-31 02:32:00,
2013-10-30 22:37:00,63.3,58.1,29.78,SE,135,0.0,0.0,83,0.00,,,0.00,pywws,2013-10-31 02:37:00,
2013-10-30 22:42:00,63.3,58.1,29.78,SE,135,0.0,0.0,83,0.00,,,0.00,pywws,2013-10-31 02:42:00,
2013-10-30 22:47:00,63.3,58.1,29.79,SE,135,0.0,0.0,83,0.00,,,0.00,pywws,2013-10-31 02:47:00,
2013-10-30 22:52:00,63.3,58.1,29.79,SE,135,0.0,0.0,83,0.00,,,0.00,pywws,2013-10-31 02:52:00,
2013-10-30 23:02:00,63.5,58.6,29.79,South,180,0.7,1.6,84,0.00,,,0.00,pywws,2013-10-31 03:02:00,
2013-10-30 23:07:00,63.5,58.2,29.80,SE,135,0.0,1.6,83,0.00,,,0.00,pywws,2013-10-31 03:07:00,
2013-10-30 23:12:00,63.5,58.2,29.80,SE,135,0.0,0.0,83,0.00,,,0.00,pywws,2013-10-31 03:12:00,
2013-10-30 23:17:00,63.5,58.2,29.80,South,180,0.0,0.0,83,0.00,,,0.00,pywws,2013-10-31 03:17:00,
2013-10-30 23:22:00,63.5,58.2,29.80,South,180,0.0,0.0,83,0.00,,,0.00,pywws,2013-10-31 03:22:00,
2013-10-30 23:32:00,63.3,58.1,29.80,East,90,0.0,0.0,83,0.00,,,0.00,pywws,2013-10-31 03:32:00,
2013-10-30 23:37:00,63.3,58.1,29.81,SE,135,0.0,0.0,83,0.00,,,0.00,pywws,2013-10-31 03:37:00,
2013-10-30 23:42:00,63.1,57.9,29.81,SE,135,0.0,0.0,83,0.00,,,0.00,pywws,2013-10-31 03:42:00,
2013-10-30 23:47:00,63.1,57.9,29.81,SE,135,0.0,0.0,83,0.00,,,0.00,pywws,2013-10-31 03:47:00,
2013-10-30 23:52:00,63.1,57.9,29.81,SE,135,0.0,0.0,83,0.00,,,0.00,pywws,2013-10-31 03:52:00,